Time;durP1;ratioP1;P1;durP2;ratioP2;P2;SDS_P1;SDS_P2;PMS_P1;PMS_P2;Temp;Humidity;BMP_temperature;BMP_pressure;BME280_temperature;BME280_humidity;BME280_pressure;Samples;Min_cycle;Max_cycle;Signal;HPM_P1;HPM_P2
2021/10/26 00:02:16;;;;;;;;;11.25;8.50;;;;;14.02;72.88;101822.81;4943814;28;45342;-60
2021/10/26 00:04:42;;;;;;;;;10.75;10.25;;;;;14.00;73.21;101822.03;4943844;28;45314;-60
2021/10/26 00:07:08;;;;;;;;;12.50;10.75;;;;;13.99;73.16;101806.25;4943960;28;45289;-60
2021/10/26 00:09:33;;;;;;;;;10.50;8.75;;;;;13.98;73.00;101815.94;4943632;28;45512;-59
2021/10/26 00:11:59;;;;;;;;;10.50;10.00;;;;;13.97;73.26;101816.91;4943664;28;46195;-60
2021/10/26 00:14:25;;;;;;;;;16.25;11.00;;;;;13.96;73.00;101820.50;4943635;28;45247;-59
2021/10/26 00:16:51;;;;;;;;;12.50;10.75;;;;;13.95;73.03;101824.09;4943747;28;45156;-59
2021/10/26 00:19:17;;;;;;;;;8.75;7.00;;;;;13.91;73.11;101814.63;4943846;28;45345;-59
2021/10/26 00:21:44;;;;;;;;;10.75;9.75;;;;;13.90;72.64;101823.47;4943505;28;46182;-60
2021/10/26 00:24:09;;;;;;;;;10.00;6.00;;;;;13.89;72.96;101816.47;4943193;28;45291;-60
2021/10/26 00:26:35;;;;;;;;;7.75;6.00;;;;;13.87;72.84;101824.50;4943560;28;45315;-59
2021/10/26 00:29:00;;;;;;;;;13.25;9.75;;;;;13.88;72.79;101822.72;4943594;28;45349;-59
2021/10/26 00:31:26;;;;;;;;;11.00;8.50;;;;;13.87;72.81;101823.66;4943500;28;45367;-59
2021/10/26 00:33:52;;;;;;;;;10.50;7.25;;;;;13.88;72.87;101828.00;4943438;28;45250;-59
2021/10/26 00:36:18;;;;;;;;;11.00;6.00;;;;;13.86;73.15;101832.53;4943427;28;45449;-59
2021/10/26 00:38:44;;;;;;;;;8.50;7.00;;;;;13.85;72.78;101833.50;4943143;28;45656;-59
2021/10/26 00:41:09;;;;;;;;;10.25;6.75;;;;;13.83;72.65;101832.72;4943208;28;46155;-59
2021/10/26 00:43:35;;;;;;;;;9.00;6.75;;;;;13.81;72.87;101832.78;4943384;28;45242;-60
2021/10/26 00:46:00;;;;;;;;;8.75;6.00;;;;;13.79;72.77;101841.78;4943281;28;45151;-59
2021/10/26 00:48:26;;;;;;;;;5.00;4.00;;;;;13.78;72.79;101838.25;4943381;28;45433;-59
2021/10/26 00:50:53;;;;;;;;;10.50;5.50;;;;;13.78;72.82;101838.25;4943085;28;45916;-60
2021/10/26 00:53:20;;;;;;;;;12.75;6.00;;;;;13.77;72.60;101841.00;4942742;28;45354;-60
2021/10/26 00:55:49;;;;;;;;;4.25;4.25;;;;;13.76;72.80;101845.44;4942509;28;45330;-61
2021/10/26 00:58:15;;;;;;;;;6.50;5.00;;;;;13.77;72.72;101843.66;4943098;28;45584;-61
2021/10/26 01:00:40;;;;;;;;;7.50;4.25;;;;;13.77;72.76;101841.84;4943133;28;45310;-60
2021/10/26 01:03:06;;;;;;;;;4.75;4.00;;;;;13.77;72.55;101841.84;4943104;28;45228;-60
2021/10/26 01:05:32;;;;;;;;;4.25;4.25;;;;;13.76;72.58;101845.44;4943173;28;45474;-59
2021/10/26 01:07:58;;;;;;;;;5.50;3.75;;;;;13.76;72.47;101839.31;4942896;28;45385;-59
2021/10/26 01:10:23;;;;;;;;;4.50;4.00;;;;;13.75;72.41;101846.41;4942945;28;46072;-59
2021/10/26 01:12:50;;;;;;;;;5.75;5.50;;;;;13.75;72.52;101850.84;4942700;28;45326;-59
2021/10/26 01:15:15;;;;;;;;;5.00;4.75;;;;;13.75;72.39;101845.53;4942999;28;45263;-59
2021/10/26 01:17:41;;;;;;;;;4.75;4.75;;;;;13.73;72.06;101850.91;4942895;28;45448;-59
2021/10/26 01:20:07;;;;;;;;;4.00;3.00;;;;;13.70;72.09;101840.47;4942678;28;45370;-59
2021/10/26 01:22:39;;;;;;;;;5.75;5.00;;;;;13.67;72.45;101856.53;4942755;28;45350;-61
2021/10/26 01:25:10;;;;;;;;;5.00;5.00;;;;;13.63;72.40;101847.91;4942445;28;45393;-60
2021/10/26 01:27:40;;;;;;;;;3.50;3.25;;;;;13.63;72.23;101852.34;4942752;28;45496;-59
2021/10/26 01:30:08;;;;;;;;;3.25;3.00;;;;;13.60;72.29;101849.88;4942524;28;46294;-59
2021/10/26 01:32:34;;;;;;;;;3.75;3.75;;;;;13.56;72.20;101838.56;4942735;28;45487;-59
2021/10/26 01:34:59;;;;;;;;;4.50;4.50;;;;;13.58;72.41;101849.94;4942489;28;45236;-59
2021/10/26 01:37:25;;;;;;;;;3.00;3.00;;;;;13.55;72.43;101852.75;4942685;28;45447;-59
2021/10/26 01:39:50;;;;;;;;;4.00;2.25;;;;;13.55;72.42;101854.56;4942045;28;45414;-59
2021/10/26 01:42:16;;;;;;;;;4.50;3.00;;;;;13.52;72.55;101852.09;4942629;28;45221;-60
2021/10/26 01:44:41;;;;;;;;;3.50;2.50;;;;;13.51;72.51;101851.22;4942516;28;45232;-59
2021/10/26 01:47:07;;;;;;;;;3.25;2.25;;;;;13.49;72.35;101857.53;4942524;28;45481;-59
2021/10/26 01:49:32;;;;;;;;;4.50;2.00;;;;;13.47;72.56;101860.25;4941875;28;46092;-60
2021/10/26 01:51:58;;;;;;;;;2.00;2.00;;;;;13.46;72.19;101855.03;4942276;28;45386;-59
2021/10/26 01:54:24;;;;;;;;;3.00;3.00;;;;;13.45;72.51;101858.63;4941500;28;45516;-60
2021/10/26 01:56:50;;;;;;;;;4.25;3.75;;;;;13.43;72.46;101850.78;4941939;28;45388;-60
2021/10/26 01:59:16;;;;;;;;;2.25;2.00;;;;;13.41;72.52;101850.00;4942217;28;45553;-60
2021/10/26 02:01:41;;;;;;;;;3.00;2.25;;;;;13.42;72.50;101851.69;4942320;28;45331;-59
2021/10/26 02:04:07;;;;;;;;;3.50;3.00;;;;;13.41;72.43;101857.94;4941000;28;45432;-60
2021/10/26 02:06:33;;;;;;;;;3.75;3.00;;;;;13.40;72.38;101854.44;4942507;28;45418;-60
2021/10/26 02:09:00;;;;;;;;;5.00;3.50;;;;;13.40;72.23;101853.56;4944826;28;45913;-60
2021/10/26 02:11:25;;;;;;;;;2.00;2.00;;;;;13.39;72.51;101851.88;4945658;28;45251;-60
2021/10/26 02:13:51;;;;;;;;;3.00;3.00;;;;;13.38;72.13;101850.16;4945517;28;45316;-60
2021/10/26 02:16:17;;;;;;;;;2.00;2.00;;;;;13.37;72.40;101851.09;4945574;28;45258;-62
2021/10/26 02:18:42;;;;;;;;;8.75;4.00;;;;;13.36;72.29;101844.09;4945289;28;46219;-60
2021/10/26 02:21:08;;;;;;;;;4.50;3.00;;;;;13.35;72.43;101848.53;4945434;28;45349;-61
2021/10/26 02:23:33;;;;;;;;;2.00;2.00;;;;;13.32;72.37;101848.69;4945206;28;45378;-60
2021/10/26 02:25:59;;;;;;;;;3.00;1.75;;;;;13.30;72.05;101850.56;4945574;28;45315;-60
2021/10/26 02:28:24;;;;;;;;;3.50;2.50;;;;;13.29;72.26;101848.00;4945069;28;45455;-60
2021/10/26 02:30:50;;;;;;;;;3.75;2.50;;;;;13.26;72.16;101853.44;4945258;28;45294;-59
2021/10/26 02:33:17;;;;;;;;;5.00;3.25;;;;;13.23;72.07;101849.19;4945208;28;45295;-60
2021/10/26 02:35:42;;;;;;;;;5.50;3.50;;;;;13.19;72.28;101858.16;4945320;28;45430;-59
2021/10/26 02:38:08;;;;;;;;;6.00;3.00;;;;;13.18;72.47;101856.47;4944813;28;45844;-60
2021/10/26 02:40:33;;;;;;;;;1.00;1.00;;;;;13.17;72.45;101856.53;4945131;28;45312;-59
2021/10/26 02:42:59;;;;;;;;;4.00;2.75;;;;;13.17;72.36;101857.41;4945248;28;45180;-59
2021/10/26 02:45:29;;;;;;;;;3.00;3.00;;;;;13.17;72.39;101859.19;4945349;28;45172;-60
2021/10/26 02:47:58;;;;;;;;;4.75;3.50;;;;;13.17;72.21;101861.84;4944829;28;45492;-60
2021/10/26 02:50:25;;;;;;;;;2.25;2.25;;;;;13.15;72.21;101856.63;4944979;28;45453;-60
2021/10/26 02:52:50;;;;;;;;;4.00;2.00;;;;;13.13;72.20;101859.38;4944697;28;45239;-60
2021/10/26 02:55:16;;;;;;;;;3.25;2.00;;;;;13.12;72.35;101864.75;4944964;28;45457;-59
2021/10/26 02:57:41;;;;;;;;;1.25;1.25;;;;;13.11;72.25;101857.72;4944811;28;45217;-59
2021/10/26 03:00:10;;;;;;;;;1.75;1.75;;;;;13.10;72.20;101863.94;4945017;28;45271;-59
2021/10/26 03:02:37;;;;;;;;;2.00;2.00;;;;;13.07;72.49;101862.31;4943594;28;45333;-59
2021/10/26 03:05:03;;;;;;;;;3.00;1.00;;;;;13.07;72.53;101864.97;4945020;28;45594;-61
2021/10/26 03:07:29;;;;;;;;;1.00;1.00;;;;;13.05;72.30;101869.47;4944493;28;45402;-59
2021/10/26 03:09:54;;;;;;;;;1.50;1.00;;;;;13.06;72.47;101871.19;4944389;28;45249;-60
2021/10/26 03:12:19;;;;;;;;;0.00;0.00;;;;;13.06;72.37;101872.97;4944888;28;45228;-60
2021/10/26 03:14:45;;;;;;;;;3.00;1.00;;;;;13.04;72.18;101875.72;4943147;28;45608;-61
2021/10/26 03:17:10;;;;;;;;;2.75;1.00;;;;;13.03;72.20;101874.00;4944053;28;45226;-59
2021/10/26 03:19:36;;;;;;;;;2.00;2.00;;;;;13.03;72.23;101876.66;4943935;28;45221;-59
2021/10/26 03:22:02;;;;;;;;;1.25;1.25;;;;;13.03;72.44;101879.28;4944627;28;45151;-60
2021/10/26 03:24:28;;;;;;;;;3.50;2.00;;;;;13.01;72.27;101881.16;4944488;28;45331;-60
2021/10/26 03:26:54;;;;;;;;;5.00;3.00;;;;;12.99;72.38;101876.88;4944249;28;45269;-60
2021/10/26 03:29:20;;;;;;;;;2.00;2.00;;;;;12.98;72.43;101876.03;4944440;28;45365;-60
2021/10/26 03:31:46;;;;;;;;;3.50;3.00;;;;;12.99;72.30;101880.38;4944474;28;45441;-59
2021/10/26 03:34:13;;;;;;;;;7.50;1.75;;;;;12.97;72.13;101873.47;4944521;28;45504;-61
2021/10/26 03:36:38;;;;;;;;;1.75;1.75;;;;;12.94;72.04;101873.59;4944070;28;45252;-60
2021/10/26 03:39:04;;;;;;;;;2.25;2.25;;;;;12.91;72.11;101873.75;4943919;28;45176;-60
2021/10/26 03:41:29;;;;;;;;;1.50;1.00;;;;;12.88;72.27;101872.16;4944395;28;45544;-60
2021/10/26 03:43:55;;;;;;;;;2.25;2.25;;;;;12.87;72.42;101878.34;4944478;28;45440;-59
2021/10/26 03:46:20;;;;;;;;;2.00;2.00;;;;;12.87;72.39;101880.97;4943983;28;45947;-59
2021/10/26 03:48:46;;;;;;;;;4.00;2.00;;;;;12.87;72.50;101883.63;4944209;28;45435;-61
2021/10/26 03:51:12;;;;;;;;;2.00;2.00;;;;;12.86;72.49;101889.84;4944358;28;45459;-60
2021/10/26 03:53:37;;;;;;;;;2.00;2.00;;;;;12.85;72.39;101881.06;4943928;28;45312;-61
2021/10/26 03:56:04;;;;;;;;;4.00;3.00;;;;;12.83;72.77;101884.72;4943890;28;45366;-62
2021/10/26 03:58:30;;;;;;;;;4.25;3.25;;;;;12.82;72.40;101885.66;4944014;28;45282;-61
2021/10/26 04:00:55;;;;;;;;;2.25;2.25;;;;;12.79;72.61;101888.44;4943876;28;45351;-61
2021/10/26 04:03:21;;;;;;;;;2.75;2.00;;;;;12.76;72.76;101892.09;4943973;28;45324;-61
2021/10/26 04:08:28;;;;;;;;;3.00;3.00;;;;;12.73;72.35;101887.00;4943593;28;45234;-60
2021/10/26 04:11:00;;;;;;;;;3.00;3.00;;;;;12.69;72.29;101890.69;4942572;28;45389;-60
2021/10/26 04:13:26;;;;;;;;;3.00;2.00;;;;;12.68;72.52;101891.63;4943870;28;45426;-61
2021/10/26 04:15:55;;;;;;;;;9.00;9.00;;;;;12.70;72.64;101891.56;4943478;28;46299;-61
2021/10/26 04:18:23;;;;;;;;;4.25;4.25;;;;;12.70;72.91;101894.19;4943655;28;45253;-61
2021/10/26 04:20:49;;;;;;;;;4.00;4.00;;;;;12.70;72.88;101891.56;4943732;28;45519;-60
2021/10/26 04:23:15;;;;;;;;;3.75;2.50;;;;;12.70;72.74;101895.06;4943261;28;45461;-60
2021/10/26 04:25:41;;;;;;;;;4.50;3.50;;;;;12.69;72.73;101900.41;4943378;28;46064;-61
2021/10/26 04:28:06;;;;;;;;;6.00;2.00;;;;;12.67;72.76;101899.66;4943601;28;45517;-61
2021/10/26 04:30:34;;;;;;;;;3.00;3.00;;;;;12.65;72.96;101902.38;4942717;28;45212;-60
2021/10/26 04:33:05;;;;;;;;;3.50;3.50;;;;;12.65;72.83;101898.88;4943113;28;45421;-60
2021/10/26 04:35:31;;;;;;;;;8.50;4.00;;;;;12.64;72.66;101908.59;4943195;28;46111;-60
2021/10/26 04:37:57;;;;;;;;;4.25;3.00;;;;;12.63;72.91;101906.84;4942987;28;45394;-61
2021/10/26 04:40:23;;;;;;;;;5.25;3.50;;;;;12.64;72.68;101905.06;4943329;28;45497;-60
2021/10/26 04:42:48;;;;;;;;;4.75;3.00;;;;;12.65;72.90;101910.31;4943311;28;45338;-60
2021/10/26 04:45:14;;;;;;;;;3.00;3.00;;;;;12.65;72.83;101912.09;4943390;28;45350;-61
2021/10/26 04:47:43;;;;;;;;;3.00;3.00;;;;;12.62;72.79;101913.09;4942983;28;45291;-60
2021/10/26 04:50:10;;;;;;;;;2.50;1.00;;;;;12.59;72.96;101915.88;4943419;28;45279;-61
2021/10/26 04:52:35;;;;;;;;;5.75;3.50;;;;;12.58;72.93;101920.31;4943196;28;45521;-60
2021/10/26 04:55:01;;;;;;;;;4.50;3.75;;;;;12.57;72.95;101920.41;4942891;28;46076;-60
2021/10/26 04:57:27;;;;;;;;;5.75;4.50;;;;;12.56;73.03;101916.91;4943038;28;45203;-60
2021/10/26 04:59:55;;;;;;;;;3.50;3.50;;;;;12.54;72.83;101918.75;4943322;28;45496;-61
2021/10/26 05:02:20;;;;;;;;;8.50;5.00;;;;;12.51;72.87;101920.69;4942829;28;45730;-60
2021/10/26 05:04:45;;;;;;;;;6.00;4.50;;;;;12.50;72.86;101916.34;4943111;28;45296;-60
2021/10/26 05:07:11;;;;;;;;;9.50;6.00;;;;;12.51;73.14;101916.25;4942794;28;45299;-60
2021/10/26 05:09:37;;;;;;;;;8.25;7.00;;;;;12.50;73.08;101916.34;4942755;28;45354;-60
2021/10/26 05:12:03;;;;;;;;;9.75;5.50;;;;;12.52;72.98;101917.13;4943023;28;45543;-61
2021/10/26 05:14:29;;;;;;;;;5.75;5.25;;;;;12.54;73.13;101917.88;4943059;28;45911;-61
2021/10/26 05:16:56;;;;;;;;;5.00;4.50;;;;;12.55;73.25;101923.09;4942579;28;45263;-61
2021/10/26 05:19:23;;;;;;;;;5.00;5.00;;;;;12.57;73.00;101923.03;4943031;28;45291;-60
2021/10/26 05:21:49;;;;;;;;;6.75;4.75;;;;;12.58;73.12;101919.47;4942582;28;45533;-60
2021/10/26 05:24:15;;;;;;;;;3.25;3.25;;;;;12.58;73.18;101922.09;4942136;28;45398;-60
2021/10/26 05:26:41;;;;;;;;;5.00;4.00;;;;;12.61;73.27;101929.03;4942630;28;45455;-60
2021/10/26 05:29:10;;;;;;;;;5.50;4.00;;;;;12.61;73.28;101931.66;4942954;28;45368;-61
2021/10/26 05:31:37;;;;;;;;;4.00;4.00;;;;;12.63;73.34;101937.72;4942690;28;45488;-60
2021/10/26 05:34:08;;;;;;;;;5.00;3.75;;;;;12.64;73.32;101942.06;4942521;28;45405;-60
2021/10/26 05:36:34;;;;;;;;;3.75;3.50;;;;;12.63;73.05;101935.94;4942400;28;45579;-60
2021/10/26 05:39:00;;;;;;;;;6.00;5.50;;;;;12.64;72.98;101939.44;4942326;28;45259;-60
2021/10/26 05:41:27;;;;;;;;;4.00;4.00;;;;;12.64;73.21;101942.06;4942486;28;45247;-60
2021/10/26 05:43:53;;;;;;;;;6.75;3.00;;;;;12.62;73.09;101944.81;4945597;28;45426;-61
2021/10/26 05:46:19;;;;;;;;;5.50;5.00;;;;;12.62;73.09;101946.59;4945626;28;45349;-61
2021/10/26 05:48:45;;;;;;;;;5.25;4.25;;;;;12.61;73.06;101935.16;4946237;28;45320;-60
2021/10/26 05:51:11;;;;;;;;;6.50;4.25;;;;;12.61;73.10;101948.38;4946003;28;45339;-61
2021/10/26 05:53:36;;;;;;;;;6.50;5.00;;;;;12.58;72.88;101948.53;4945618;28;45242;-61
2021/10/26 05:56:02;;;;;;;;;6.00;4.50;;;;;12.56;73.02;101947.75;4944443;28;45505;-60
2021/10/26 05:58:28;;;;;;;;;6.00;5.00;;;;;12.54;73.14;101953.09;4945898;28;45386;-60
2021/10/26 06:00:53;;;;;;;;;9.75;6.50;;;;;12.53;73.15;101955.81;4947183;28;45228;-60
2021/10/26 06:03:19;;;;;;;;;7.75;7.50;;;;;12.53;72.96;101964.59;4945490;28;45425;-60
2021/10/26 06:05:44;;;;;;;;;9.00;5.75;;;;;12.54;73.27;101968.09;4949006;28;45391;-60
2021/10/26 06:08:10;;;;;;;;;8.25;5.00;;;;;12.55;73.22;101972.47;4945409;28;45447;-61
2021/10/26 06:10:41;;;;;;;;;7.50;5.25;;;;;12.54;73.36;101965.47;4948086;28;45251;-60
2021/10/26 06:13:17;;;;;;;;;9.50;8.00;;;;;12.55;73.05;101975.09;4945473;28;45292;-60
2021/10/26 06:15:43;;;;;;;;;11.50;9.00;;;;;12.52;72.86;101973.47;4946696;28;45365;-60
2021/10/26 06:18:08;;;;;;;;;6.00;6.00;;;;;12.48;72.80;101974.56;4945577;28;45310;-60
2021/10/26 06:20:34;;;;;;;;;7.75;6.00;;;;;12.48;72.93;101968.38;4945247;28;45345;-60
2021/10/26 06:23:00;;;;;;;;;11.00;11.00;;;;;12.46;72.84;101972.91;4944831;28;46112;-60
2021/10/26 06:25:26;;;;;;;;;10.00;8.25;;;;;12.47;72.64;101977.25;4945097;28;45330;-60
2021/10/26 06:27:52;;;;;;;;;4.00;3.00;;;;;12.45;72.52;101984.41;4945419;28;45216;-61
2021/10/26 06:30:18;;;;;;;;;10.50;9.75;;;;;12.45;72.54;101989.69;4945287;28;45552;-61
2021/10/26 06:32:44;;;;;;;;;9.25;8.50;;;;;12.47;72.44;101993.97;4944941;28;46080;-60
2021/10/26 06:35:11;;;;;;;;;12.25;10.00;;;;;12.48;72.52;101995.69;4945060;28;45275;-60
2021/10/26 06:37:41;;;;;;;;;10.75;9.00;;;;;12.50;72.13;101999.13;4945175;28;45349;-60
2021/10/26 06:40:07;;;;;;;;;10.00;10.00;;;;;12.49;72.12;101999.19;4944737;28;45351;-60
2021/10/26 06:42:34;;;;;;;;;13.75;12.50;;;;;12.49;72.19;102001.84;4944888;28;46027;-62
2021/10/26 06:45:00;;;;;;;;;16.00;12.75;;;;;12.48;72.27;102003.63;4943497;28;45528;-60
2021/10/26 06:47:25;;;;;;;;;18.50;12.50;;;;;12.46;72.25;102007.25;4944784;28;45452;-60
2021/10/26 06:49:51;;;;;;;;;13.00;11.00;;;;;12.44;72.24;102007.34;4944910;28;45412;-59
2021/10/26 06:52:17;;;;;;;;;14.75;11.00;;;;;12.43;72.31;102010.06;4944698;28;45395;-60
2021/10/26 06:54:43;;;;;;;;;10.75;9.50;;;;;12.42;72.25;102022.41;4950514;28;45280;-61
2021/10/26 06:57:09;;;;;;;;;12.25;10.75;;;;;12.36;72.09;102033.25;4944791;28;45378;-59
2021/10/26 06:59:35;;;;;;;;;13.00;10.25;;;;;12.35;72.19;102026.25;4954309;28;45384;-60
2021/10/26 07:02:02;;;;;;;;;14.00;10.00;;;;;12.34;72.42;102029.84;4953411;28;45537;-61
2021/10/26 07:04:28;;;;;;;;;13.75;11.25;;;;;12.37;72.36;102040.25;4944854;28;45605;-60
2021/10/26 07:06:54;;;;;;;;;11.00;9.25;;;;;12.40;72.38;102039.25;4950965;28;45319;-60
2021/10/26 07:09:19;;;;;;;;;12.25;10.25;;;;;12.40;71.91;102050.69;4952128;28;45460;-60
2021/10/26 07:11:45;;;;;;;;;9.25;9.25;;;;;12.42;72.12;102051.47;4955098;28;46300;-60
2021/10/26 07:14:11;;;;;;;;;10.00;5.50;;;;;12.43;71.81;102054.97;4946614;28;45399;-59
2021/10/26 07:16:37;;;;;;;;;14.75;8.00;;;;;12.43;71.84;102061.13;4944486;28;45473;-61
2021/10/26 07:19:03;;;;;;;;;11.50;11.25;;;;;12.43;72.05;102071.69;4944239;28;45533;-61
2021/10/26 07:21:28;;;;;;;;;11.75;9.25;;;;;12.41;71.85;102078.84;4944248;28;45238;-61
2021/10/26 07:23:54;;;;;;;;;12.00;9.75;;;;;12.39;71.89;102071.88;4943850;28;45418;-61
2021/10/26 07:26:19;;;;;;;;;11.25;11.00;;;;;12.37;71.59;102081.69;4944040;28;45504;-59
2021/10/26 07:28:45;;;;;;;;;10.75;9.25;;;;;12.34;71.78;102074.75;4944245;28;45552;-60
2021/10/26 07:31:10;;;;;;;;;13.00;11.75;;;;;12.33;71.86;102077.47;4943763;28;45437;-61
2021/10/26 07:33:36;;;;;;;;;14.00;11.75;;;;;12.33;71.94;102088.91;4944117;28;45398;-60
2021/10/26 07:36:07;;;;;;;;;12.75;12.00;;;;;12.32;72.01;102096.88;4944465;28;45343;-60
2021/10/26 07:38:40;;;;;;;;;14.00;11.75;;;;;12.32;72.13;102103.00;4942680;28;45518;-60
2021/10/26 07:41:05;;;;;;;;;11.00;9.50;;;;;12.38;72.49;102112.47;4943777;28;45351;-60
2021/10/26 07:43:34;;;;;;;;;16.25;10.75;;;;;12.41;72.01;102110.56;4944038;28;45301;-61
2021/10/26 07:46:00;;;;;;;;;11.25;9.25;;;;;12.44;72.27;102112.19;4944161;28;45247;-62
2021/10/26 07:48:26;;;;;;;;;9.50;9.50;;;;;12.47;72.20;102112.03;4943871;28;45629;-61
2021/10/26 07:50:57;;;;;;;;;13.25;12.25;;;;;12.47;72.27;102118.19;4958570;28;45465;-61
2021/10/26 07:53:23;;;;;;;;;9.00;9.00;;;;;12.50;72.29;102119.84;4943012;28;45509;-60
2021/10/26 07:55:49;;;;;;;;;9.50;9.00;;;;;12.53;72.26;102124.97;4943901;28;45163;-60
2021/10/26 07:58:15;;;;;;;;;9.25;8.00;;;;;12.57;72.80;102132.72;4943872;28;45224;-60
2021/10/26 08:00:40;;;;;;;;;12.25;10.25;;;;;12.63;72.71;102138.63;4943432;28;46090;-60
2021/10/26 08:03:06;;;;;;;;;9.50;8.00;;;;;12.67;72.62;102140.22;4943780;28;45388;-60
2021/10/26 08:05:32;;;;;;;;;9.00;9.00;;;;;12.69;72.61;102131.28;4943533;28;45158;-60
2021/10/26 08:07:58;;;;;;;;;11.25;11.25;;;;;12.69;72.85;102135.72;4943468;28;45550;-60
2021/10/26 08:10:24;;;;;;;;;8.75;7.50;;;;;12.69;72.89;102126.00;4942883;28;45860;-60
2021/10/26 08:12:50;;;;;;;;;16.25;10.75;;;;;12.73;73.21;102118.81;4943473;28;45416;-60
2021/10/26 08:15:15;;;;;;;;;17.75;14.25;;;;;12.83;73.20;102135.94;4943435;28;45375;-61
2021/10/26 08:17:41;;;;;;;;;14.25;10.25;;;;;12.89;73.01;102126.88;4943742;28;45380;-60
2021/10/26 08:20:07;;;;;;;;;10.00;9.75;;;;;12.94;72.86;102128.34;4943311;28;45535;-60
2021/10/26 08:22:35;;;;;;;;;16.75;13.50;;;;;12.97;73.08;102116.78;4943556;28;45365;-61
2021/10/26 08:25:06;;;;;;;;;13.25;12.00;;;;;13.04;73.08;102119.06;4943343;28;45428;-60
2021/10/26 08:27:31;;;;;;;;;11.00;10.75;;;;;13.09;72.80;102127.63;4943529;28;45374;-60
2021/10/26 08:30:08;;;;;;;;;14.50;11.00;;;;;13.11;72.87;102120.50;4943177;28;46078;-61
2021/10/26 08:32:59;;;;;;;;;12.75;11.00;;;;;13.17;72.64;102121.13;4942939;28;45378;-60
2021/10/26 08:35:25;;;;;;;;;14.75;13.50;;;;;13.25;72.88;102117.19;4943185;28;45406;-61
2021/10/26 08:37:57;;;;;;;;;12.00;10.00;;;;;13.35;72.83;102120.25;4942815;28;45454;-61
2021/10/26 08:40:24;;;;;;;;;16.75;10.00;;;;;13.46;72.83;102114.44;4943024;28;45238;-61
2021/10/26 08:42:51;;;;;;;;;15.50;12.00;;;;;13.57;72.77;102115.63;4941665;28;45407;-61
2021/10/26 08:45:22;;;;;;;;;12.00;11.00;;;;;13.66;72.42;102120.44;4943218;28;45343;-62
2021/10/26 08:47:48;;;;;;;;;18.00;14.75;;;;;13.76;72.37;102122.66;4938096;28;45513;-60
2021/10/26 08:50:15;;;;;;;;;18.00;16.25;;;;;13.83;71.60;102116.13;4942771;28;45381;-61
2021/10/26 08:52:42;;;;;;;;;16.50;12.50;;;;;13.85;71.52;102116.91;4941733;28;45404;-61
2021/10/26 08:55:09;;;;;;;;;15.25;12.50;;;;;13.86;71.21;102126.56;4942763;28;45387;-60
2021/10/26 08:57:35;;;;;;;;;12.25;11.75;;;;;13.85;71.40;102125.69;4943130;28;45167;-60
2021/10/26 09:00:05;;;;;;;;;12.50;11.00;;;;;13.88;71.13;102130.81;4957772;28;47733;-60
2021/10/26 09:02:39;;;;;;;;;12.50;12.00;;;;;13.93;71.13;102123.50;4942553;28;45491;-60
2021/10/26 09:05:10;;;;;;;;;11.25;11.25;;;;;13.95;70.99;102121.63;4942683;28;45400;-60
2021/10/26 09:07:36;;;;;;;;;13.50;10.75;;;;;14.02;70.91;102122.19;4942637;28;45354;-60
2021/10/26 09:10:10;;;;;;;;;10.00;9.25;;;;;14.05;70.78;102129.09;4942635;28;45315;-60
2021/10/26 09:17:50;;;;;;;;;13.50;12.00;;;;;14.10;70.71;102129.72;4942149;28;45413;-60
2021/10/26 09:20:24;;;;;;;;;14.00;12.50;;;;;14.15;70.23;102133.00;4942170;28;46188;-60
2021/10/26 09:22:55;;;;;;;;;15.75;11.75;;;;;14.18;70.23;102127.53;4942194;28;45331;-61
2021/10/26 09:25:35;;;;;;;;;13.00;12.00;;;;;14.21;69.83;102128.22;4942501;28;45290;-61
2021/10/26 09:28:13;;;;;;;;;20.00;15.25;;;;;14.24;70.31;102122.78;4942596;28;45473;-60
2021/10/26 09:30:57;;;;;;;;;15.25;11.00;;;;;14.28;70.08;102118.16;4942267;28;45432;-61
2021/10/26 09:33:37;;;;;;;;;10.25;10.25;;;;;14.33;69.94;102112.63;4942277;28;45313;-60
2021/10/26 09:36:25;;;;;;;;;10.75;7.00;;;;;14.41;69.46;102111.28;4942144;28;45239;-61
2021/10/26 09:39:03;;;;;;;;;11.25;6.75;;;;;14.46;69.19;102109.28;4942095;28;45370;-60
2021/10/26 09:41:30;;;;;;;;;10.25;8.75;;;;;14.51;69.28;102101.06;4941631;28;45230;-61
2021/10/26 09:44:13;;;;;;;;;12.50;9.00;;;;;14.55;69.33;102107.06;4942162;28;45540;-62
2021/10/26 09:46:50;;;;;;;;;10.00;7.50;;;;;14.58;68.95;102115.72;4942125;28;45282;-62
2021/10/26 09:49:24;;;;;;;;;10.50;6.50;;;;;14.58;68.91;102107.75;4942295;28;45500;-60
2021/10/26 09:52:07;;;;;;;;;11.75;9.75;;;;;14.67;68.50;102109.03;4942155;28;45240;-60
2021/10/26 09:54:33;;;;;;;;;10.75;7.75;;;;;14.82;68.72;102099.41;4941392;28;45442;-60
2021/10/26 09:57:07;;;;;;;;;10.25;9.00;;;;;14.98;68.16;102110.88;4942213;28;45335;-60
2021/10/26 09:59:34;;;;;;;;;10.75;7.00;;;;;15.04;68.16;102122.00;4942281;28;45544;-61
2021/10/26 10:01:59;;;;;;;;;20.25;11.75;;;;;15.11;68.01;102119.00;4942199;28;45247;-61
2021/10/26 10:04:30;;;;;;;;;12.75;8.25;;;;;15.16;67.97;102122.25;4941652;28;45354;-61
2021/10/26 10:06:55;;;;;;;;;6.50;6.50;;;;;15.19;67.68;102116.78;4942120;28;45393;-61
2021/10/26 10:09:24;;;;;;;;;6.25;5.00;;;;;15.25;67.65;102121.75;4941663;28;45310;-60
2021/10/26 10:12:07;;;;;;;;;9.75;7.50;;;;;15.27;67.55;102126.00;4942017;28;46223;-60
2021/10/26 10:14:41;;;;;;;;;10.25;6.00;;;;;15.31;67.39;102122.22;4941676;28;45302;-62
2021/10/26 10:17:13;;;;;;;;;5.00;5.00;;;;;15.37;67.20;102126.34;4941844;28;45362;-61
2021/10/26 10:19:40;;;;;;;;;7.00;6.00;;;;;15.42;66.95;102126.94;4942102;28;45677;-61
2021/10/26 10:22:07;;;;;;;;;6.50;5.25;;;;;15.43;66.58;102127.78;4941370;28;45372;-61
2021/10/26 10:24:39;;;;;;;;;7.50;6.00;;;;;15.42;66.74;102132.25;4941124;28;45386;-61
2021/10/26 10:27:07;;;;;;;;;12.00;8.00;;;;;15.41;67.21;102127.88;4941671;28;45448;-61
2021/10/26 10:29:35;;;;;;;;;13.25;12.75;;;;;15.44;67.23;102125.03;4944079;28;45465;-61
2021/10/26 10:32:02;;;;;;;;;24.25;17.75;;;;;15.53;67.57;102129.81;4944979;28;46006;-61
2021/10/26 10:34:29;;;;;;;;;5.50;5.50;;;;;15.68;67.51;102128.09;4944784;28;45267;-61
2021/10/26 10:36:57;;;;;;;;;6.25;6.25;;;;;15.81;66.80;102123.78;4944726;28;45347;-61
2021/10/26 10:39:32;;;;;;;;;10.25;7.00;;;;;15.94;66.36;102129.22;4944637;28;45426;-61
2021/10/26 10:42:15;;;;;;;;;8.50;5.00;;;;;16.10;66.38;102134.47;4944578;28;46551;-61
2021/10/26 10:44:41;;;;;;;;;6.25;6.25;;;;;16.24;66.01;102139.81;4944516;28;45334;-61
2021/10/26 10:47:28;;;;;;;;;11.00;7.50;;;;;16.34;66.01;102129.47;4944858;28;45369;-62
2021/10/26 10:49:53;;;;;;;;;7.00;6.00;;;;;16.35;65.76;102125.84;4944678;28;45321;-61
2021/10/26 10:52:21;;;;;;;;;5.75;5.75;;;;;16.33;65.48;102123.28;4944259;28;45312;-62
2021/10/26 10:54:53;;;;;;;;;7.25;6.50;;;;;16.30;65.50;102119.97;4943874;28;45184;-61
2021/10/26 10:57:51;;;;;;;;;8.75;6.75;;;;;16.26;65.54;102129.94;4944609;28;45335;-61
2021/10/26 11:00:28;;;;;;;;;9.00;7.00;;;;;16.30;65.71;102127.97;4943865;28;45211;-61
2021/10/26 11:02:56;;;;;;;;;12.00;8.75;;;;;16.33;65.59;102127.75;4944367;28;45359;-61
2021/10/26 11:05:31;;;;;;;;;6.50;6.50;;;;;16.35;65.37;102125.84;4944407;28;45366;-62
2021/10/26 11:08:21;;;;;;;;;5.50;5.00;;;;;16.34;65.28;102126.81;4944159;28;45279;-61
2021/10/26 11:10:50;;;;;;;;;7.00;7.00;;;;;16.32;65.26;102126.06;4943813;28;45180;-61
2021/10/26 11:13:31;;;;;;;;;5.00;5.00;;;;;16.31;65.41;102130.53;4944115;28;45451;-61
2021/10/26 11:15:59;;;;;;;;;6.25;5.25;;;;;16.33;65.67;102125.09;4944264;28;45310;-61
2021/10/26 11:18:41;;;;;;;;;4.75;4.75;;;;;16.32;65.25;102128.72;4944361;28;45448;-61
2021/10/26 11:21:10;;;;;;;;;7.25;6.50;;;;;16.35;65.36;102123.19;4944458;28;45603;-61
2021/10/26 11:23:44;;;;;;;;;5.00;1.00;;;;;16.34;65.20;102124.16;4943560;28;45394;-62
2021/10/26 11:26:15;;;;;;;;;8.00;4.00;;;;;16.26;65.23;102124.63;4943951;28;45374;-61
2021/10/26 11:28:55;;;;;;;;;4.00;4.00;;;;;16.20;65.32;102111.72;4944148;28;45322;-61
2021/10/26 11:31:23;;;;;;;;;3.00;3.00;;;;;16.18;65.55;102111.78;4944215;28;45415;-61